Time;durP1;ratioP1;P1;durP2;ratioP2;P2;SDS_P1;SDS_P2;PMS_P1;PMS_P2;Temp;Humidity;BMP_temperature;BMP_pressure;BME280_temperature;BME280_humidity;BME280_pressure;Samples;Min_cycle;Max_cycle;Signal;HPM_P1;HPM_P2
2023/01/12 00:00:36;;;;;;;9.52;1.05;;;;;;;-146.25;89.86;52493.91;2087105;28;37590;-78
2023/01/12 00:01:40;;;;;;;14.80;1.50;;;;;;;-146.25;89.34;52518.25;2088201;28;38713;-78
2023/01/12 00:02:41;;;;;;;6.45;0.70;;;;;;;-146.25;89.73;52483.78;2088316;28;41623;-77
2023/01/12 00:03:43;;;;;;;7.80;1.17;;;;;;;-146.25;89.66;52495.94;2079411;28;40170;-78
2023/01/12 00:04:45;;;;;;;10.43;1.10;;;;;;;-146.25;89.89;52449.31;2079784;28;38488;-77
2023/01/12 00:05:47;;;;;;;10.00;1.25;;;;;;;-146.25;89.57;52479.72;2089291;28;41672;-77
2023/01/12 00:06:48;;;;;;;7.72;1.23;;;;;;;-146.25;89.46;52493.91;2087523;28;37407;-78
2023/01/12 00:07:50;;;;;;;8.73;1.05;;;;;;;-146.25;89.15;52504.03;2087808;28;38388;-78
2023/01/12 00:08:52;;;;;;;11.45;1.00;;;;;;;-146.25;89.35;52467.56;2088682;28;41648;-77
2023/01/12 00:09:54;;;;;;;9.13;1.23;;;;;;;-146.25;89.02;52457.41;2080590;28;20049;-77
2023/01/12 00:10:55;;;;;;;7.53;0.75;;;;;;;-146.25;89.29;52514.19;2073431;28;34974;-78
2023/01/12 00:11:57;;;;;;;11.57;1.00;;;;;;;-146.25;89.41;52463.50;2079843;28;37513;-78
2023/01/12 00:12:59;;;;;;;10.77;1.10;;;;;;;-146.25;89.48;52506.06;2080056;28;38702;-77
2023/01/12 00:14:01;;;;;;;11.32;1.33;;;;;;;-146.25;90.08;52479.72;2088434;28;37269;-77
2023/01/12 00:15:03;;;;;;;9.43;1.02;;;;;;;-146.25;90.34;52467.56;2088300;28;40481;-78
2023/01/12 00:17:26;;;;;;;11.93;1.33;;;;;;;-146.25;90.68;52487.81;2088306;28;41836;-78
2023/01/12 00:18:31;;;;;;;12.55;1.52;;;;;;;-146.25;90.82;52455.38;2088399;28;24845;-77
2023/01/12 00:19:33;;;;;;;11.82;1.10;;;;;;;-146.25;90.77;52487.81;2087563;28;41640;-78
2023/01/12 00:20:34;;;;;;;9.52;1.30;;;;;;;-146.25;90.71;52483.78;2087899;28;39029;-78
2023/01/12 00:21:55;;;;;;;9.57;0.93;;;;;;;-146.25;90.76;52502.03;2089080;28;20100;-78
2023/01/12 00:23:00;;;;;;;6.63;0.90;;;;;;;-146.25;91.28;52506.06;2090343;28;37353;-77
2023/01/12 00:24:06;;;;;;;13.02;1.15;;;;;;;-146.25;90.97;52530.41;2096550;28;41975;-77
2023/01/12 00:25:08;;;;;;;8.20;1.23;;;;;;;-146.25;90.85;52475.66;2088602;28;20138;-78
2023/01/12 00:26:10;;;;;;;10.23;0.95;;;;;;;-146.25;91.13;52459.44;2080333;28;38761;-78
2023/01/12 00:27:18;;;;;;;7.47;0.98;;;;;;;-146.25;90.98;52479.72;2079928;28;36077;-78
2023/01/12 00:28:23;;;;;;;11.43;1.10;;;;;;;-146.25;91.24;52502.03;2081423;28;20080;-78
2023/01/12 00:29:26;;;;;;;7.50;0.93;;;;;;;-146.25;91.00;52504.03;2081041;28;30292;-78
2023/01/12 00:30:28;;;;;;;13.20;1.05;;;;;;;-146.25;91.19;52473.63;2088977;28;20155;-77
2023/01/12 00:31:30;;;;;;;8.25;1.20;;;;;;;-146.25;91.37;52540.53;2095851;28;40485;-77
2023/01/12 00:32:32;;;;;;;11.07;1.50;;;;;;;-146.25;91.17;52471.59;2096744;28;35070;-78
2023/01/12 00:33:38;;;;;;;6.00;0.70;;;;;;;-146.25;91.35;52493.91;2096911;28;35866;-77
2023/01/12 00:34:40;;;;;;;11.57;1.05;;;;;;;-146.25;91.42;52500.00;2096695;28;42195;-77
2023/01/12 00:35:42;;;;;;;8.60;1.10;;;;;;;-146.25;91.15;52479.72;2097625;28;20080;-77
2023/01/12 00:36:45;;;;;;;10.85;1.17;;;;;;;-146.25;91.09;52508.09;2096672;28;39905;-77
2023/01/12 00:37:47;;;;;;;7.80;1.00;;;;;;;-146.25;91.19;52506.06;2087411;28;36824;-77
2023/01/12 00:38:49;;;;;;;8.50;1.40;;;;;;;-146.25;91.28;52457.41;2089011;28;20038;-78
2023/01/12 00:39:51;;;;;;;7.72;1.30;;;;;;;-146.25;91.02;52475.66;2096588;28;42782;-77
2023/01/12 00:41:09;;;;;;;9.15;1.05;;;;;;;-146.25;91.13;52489.84;2087963;28;39013;-78
2023/01/12 00:46:16;;;;;;;9.63;1.25;;;;;;;-146.25;90.77;52473.63;2093230;28;40420;-78
2023/01/12 00:47:18;;;;;;;6.70;1.05;;;;;;;-146.25;90.51;52473.63;2096589;28;40319;-78
2023/01/12 00:48:20;;;;;;;9.52;1.60;;;;;;;-146.25;90.53;52502.03;2096838;28;36960;-77
2023/01/12 00:49:21;;;;;;;10.60;1.33;;;;;;;-146.25;90.46;52520.28;2096205;28;41393;-78
2023/01/12 00:50:23;;;;;;;8.77;1.30;;;;;;;-146.25;90.76;52473.63;2097605;28;20033;-77
2023/01/12 00:51:25;;;;;;;14.35;1.70;;;;;;;-146.25;90.66;52473.63;2096187;28;41488;-78
2023/01/12 00:52:27;;;;;;;10.85;1.15;;;;;;;-146.25;90.57;52518.25;2087626;28;38571;-77
2023/01/12 00:53:32;;;;;;;12.88;1.55;;;;;;;-146.25;90.52;52463.50;2088741;28;24579;-77
2023/01/12 00:54:36;;;;;;;9.73;1.50;;;;;;;-146.25;91.08;52477.69;2097541;28;20037;-78
2023/01/12 00:55:41;;;;;;;10.85;1.58;;;;;;;-146.25;91.40;52471.59;2096091;28;39714;-78
2023/01/12 00:56:43;;;;;;;12.23;1.55;;;;;;;-146.25;91.45;52479.72;2096388;28;37581;-77
2023/01/12 00:57:44;;;;;;;9.80;1.35;;;;;;;-146.25;92.06;52467.56;2096728;28;37591;-78
2023/01/12 00:58:46;;;;;;;6.13;1.02;;;;;;;-146.25;92.34;52477.69;2096960;28;41031;-77
2023/01/12 00:59:48;;;;;;;10.38;1.92;;;;;;;-146.25;92.09;52461.47;2087269;28;39020;-77
2023/01/12 01:00:49;;;;;;;11.70;1.45;;;;;;;-146.25;92.54;52469.56;2087729;28;38531;-77
2023/01/12 01:01:51;;;;;;;10.20;1.27;;;;;;;-146.25;92.87;52477.69;2096079;28;40766;-77
2023/01/12 01:02:53;;;;;;;11.23;1.40;;;;;;;-146.25;93.56;52516.22;2097416;28;21007;-77
2023/01/12 01:03:57;;;;;;;8.05;1.00;;;;;;;-146.25;93.75;52481.75;2095893;28;37079;-77
2023/01/12 01:04:58;;;;;;;9.50;1.55;;;;;;;-146.25;94.28;52495.94;2096032;28;39465;-77
2023/01/12 01:06:06;;;;;;;11.02;1.77;;;;;;;-146.25;94.30;52485.81;2096354;28;35159;-77
2023/01/12 01:07:08;;;;;;;10.15;1.20;;;;;;;-146.25;94.10;52520.28;2087248;28;35790;-78
2023/01/12 01:08:09;;;;;;;7.35;1.38;;;;;;;-146.25;94.14;52534.47;2087773;28;38277;-78
2023/01/12 01:09:12;;;;;;;11.88;1.20;;;;;;;-146.25;94.17;52479.72;2096507;28;35047;-78
2023/01/12 01:10:15;;;;;;;6.63;1.33;;;;;;;-146.25;94.29;52502.03;2096370;28;40517;-78
2023/01/12 01:11:18;;;;;;;9.43;1.55;;;;;;;-146.25;94.31;52465.53;2096766;28;21916;-78
2023/01/12 01:12:19;;;;;;;8.82;1.20;;;;;;;-146.25;94.30;52467.56;2096555;28;39830;-78
2023/01/12 01:13:21;;;;;;;6.90;1.25;;;;;;;-146.25;94.18;52477.69;2096397;28;38459;-77
2023/01/12 01:14:24;;;;;;;13.10;1.58;;;;;;;-146.25;94.58;52477.69;2096636;28;20036;-78
2023/01/12 01:15:25;;;;;;;10.88;1.30;;;;;;;-146.25;94.27;52461.47;2087515;28;39242;-78
2023/01/12 01:16:28;;;;;;;8.85;1.10;;;;;;;-146.25;94.54;52471.59;2087628;28;37810;-77
2023/01/12 01:17:30;;;;;;;9.50;1.30;;;;;;;-146.25;94.43;52485.81;2087422;28;35199;-77
2023/01/12 01:18:34;;;;;;;8.23;1.17;;;;;;;-146.25;94.63;52489.84;2087556;28;40232;-77
2023/01/12 01:19:36;;;;;;;6.50;1.20;;;;;;;-146.25;94.39;52465.53;2087392;28;38814;-77
2023/01/12 01:20:37;;;;;;;7.88;1.33;;;;;;;-146.25;94.03;52495.94;2088297;28;34756;-77
2023/01/12 01:21:39;;;;;;;6.57;1.30;;;;;;;-146.25;93.44;52497.97;2087173;28;40037;-77
2023/01/12 01:22:43;;;;;;;7.05;0.90;;;;;;;-146.25;93.45;52497.97;2087541;28;37301;-77
2023/01/12 01:23:45;;;;;;;8.35;1.10;;;;;;;-146.25;93.47;52461.47;2096385;28;39134;-77
2023/01/12 01:24:49;;;;;;;8.00;1.15;;;;;;;-146.25;93.59;52489.84;2096587;28;37431;-77
2023/01/12 01:25:51;;;;;;;7.63;1.00;;;;;;;-146.25;93.37;52453.34;2087727;28;31849;-77
2023/01/12 01:26:53;;;;;;;10.43;1.02;;;;;;;-146.25;93.25;52510.13;2087624;28;37808;-77
2023/01/12 01:27:54;;;;;;;10.45;0.88;;;;;;;-146.25;92.91;52481.75;2097503;28;24914;-77
2023/01/12 01:28:59;;;;;;;10.55;1.08;;;;;;;-146.25;93.06;52502.03;2087148;28;41214;-77
2023/01/12 01:30:00;;;;;;;8.70;1.13;;;;;;;-146.25;92.50;52457.41;2087959;28;37379;-77
2023/01/12 01:31:19;;;;;;;11.30;1.25;;;;;;;-146.25;92.55;52445.25;2096009;28;37093;-77
2023/01/12 01:32:21;;;;;;;7.55;0.70;;;;;;;-146.25;92.44;52457.41;2087368;28;41264;-77
2023/01/12 01:33:22;;;;;;;8.40;1.23;;;;;;;-146.25;92.59;52487.81;2087953;28;38863;-77
2023/01/12 01:34:24;;;;;;;8.00;0.80;;;;;;;-146.25;92.35;52514.19;2096328;28;42120;-77
2023/01/12 01:35:26;;;;;;;10.48;1.25;;;;;;;-146.25;92.42;52467.56;2096615;28;35456;-77
2023/01/12 01:36:27;;;;;;;6.70;0.80;;;;;;;-146.25;92.44;52510.13;2096055;28;40266;-77
2023/01/12 01:37:31;;;;;;;7.80;1.00;;;;;;;-146.25;92.18;52497.97;2096262;28;40804;-77
2023/01/12 01:38:36;;;;;;;6.93;0.77;;;;;;;-146.25;92.38;52481.75;2096868;28;20048;-78
2023/01/12 01:39:37;;;;;;;8.65;0.60;;;;;;;-146.25;92.33;52475.66;2087207;28;41956;-77
2023/01/12 01:40:42;;;;;;;7.45;0.82;;;;;;;-146.25;92.42;52502.03;2086995;28;40780;-77
2023/01/12 01:41:44;;;;;;;6.68;0.80;;;;;;;-146.25;92.56;52506.06;2078949;28;38921;-77
2023/01/12 01:42:45;;;;;;;8.00;0.70;;;;;;;-146.25;92.90;52485.81;2087341;28;38482;-78
2023/01/12 01:44:03;;;;;;;8.75;0.70;;;;;;;-146.25;92.98;52489.84;2088603;28;21048;-77
2023/01/12 01:45:11;;;;;;;7.15;0.60;;;;;;;-146.25;93.05;52463.50;2081284;28;35479;-78
2023/01/12 01:46:20;;;;;;;6.15;0.77;;;;;;;-146.25;93.26;52477.69;2080286;28;42051;-77
2023/01/12 01:47:39;;;;;;;7.82;0.70;;;;;;;-146.25;93.33;52495.94;2081087;28;34857;-77
2023/01/12 01:48:42;;;;;;;5.25;0.65;;;;;;;-146.25;93.03;52493.91;2082215;28;43721;-77
2023/01/12 01:49:52;;;;;;;8.25;0.93;;;;;;;-146.25;93.16;52536.50;2087602;28;38706;-78
2023/01/12 01:51:03;;;;;;;6.97;0.60;;;;;;;-146.25;93.07;52528.38;2096003;28;41999;-78
2023/01/12 01:52:17;;;;;;;6.35;0.70;;;;;;;-146.25;93.10;52489.84;2079278;28;37237;-78
2023/01/12 01:53:22;;;;;;;6.70;0.70;;;;;;;-146.25;93.42;52504.03;2083528;28;40688;-78
2023/01/12 01:54:25;;;;;;;9.13;0.80;;;;;;;-146.25;93.23;52481.75;2087334;28;36839;-78
2023/01/12 01:55:34;;;;;;;8.05;1.17;;;;;;;-146.25;93.28;52489.84;2088088;28;34538;-78
2023/01/12 01:56:36;;;;;;;7.50;0.98;;;;;;;-146.25;93.19;52506.06;2087227;28;44490;-78
2023/01/12 01:58:14;;;;;;;8.77;1.08;;;;;;;-146.25;92.82;52477.69;2078808;28;38566;-78
2023/01/12 01:59:25;;;;;;;6.15;0.82;;;;;;;-146.25;92.99;52500.00;2092923;28;39862;-78
2023/01/12 02:00:27;;;;;;;10.70;1.08;;;;;;;-146.25;93.05;52489.84;2096046;28;40069;-78
2023/01/12 02:01:29;;;;;;;7.43;0.98;;;;;;;-146.25;93.10;52445.25;2086841;28;39529;-78
2023/01/12 02:02:31;;;;;;;9.75;1.30;;;;;;;-146.25;93.36;52473.63;2087546;28;34318;-77
2023/01/12 02:03:34;;;;;;;4.70;0.70;;;;;;;-146.25;93.51;52463.50;2078644;28;42870;-78
2023/01/12 02:04:37;;;;;;;7.22;1.25;;;;;;;-146.25;93.64;52506.06;2079792;28;39222;-78
2023/01/12 02:05:44;;;;;;;8.05;0.93;;;;;;;-146.25;93.72;52465.53;2087124;28;37733;-78
2023/01/12 02:06:48;;;;;;;13.02;1.27;;;;;;;-146.25;93.95;52493.91;2088018;28;40639;-78
2023/01/12 02:07:51;;;;;;;7.50;1.10;;;;;;;-146.25;94.08;52497.97;2095783;28;39577;-78
2023/01/12 02:09:00;;;;;;;10.00;1.40;;;;;;;-146.25;94.36;52479.72;2095743;28;39744;-78
2023/01/12 02:10:02;;;;;;;8.15;1.15;;;;;;;-146.25;94.31;52485.81;2087500;28;30292;-78
2023/01/12 02:16:19;;;;;;;10.77;1.38;;;;;;;-146.25;94.44;52485.81;2071682;28;41707;-78
2023/01/12 02:16:29;;;;;;;10.77;1.50;;;;;;;-146.25;94.75;52455.38;2084204;28;39393;-78
2023/01/12 02:18:03;;;;;;;9.35;1.40;;;;;;;-146.25;95.05;52487.81;2081825;28;39010;-78
2023/01/12 02:19:38;;;;;;;11.43;1.13;;;;;;;-146.25;95.37;52461.47;2092347;28;40300;-78
2023/01/12 02:21:28;;;;;;;8.55;1.42;;;;;;;-146.25;95.21;52487.81;2087320;28;37943;-78
2023/01/12 02:22:55;;;;;;;6.07;0.75;;;;;;;-146.25;95.36;52500.00;2082336;28;40227;-78
2023/01/12 02:24:28;;;;;;;8.75;1.55;;;;;;;-146.25;95.53;52502.03;2095739;28;36297;-78
2023/01/12 02:26:19;;;;;;;8.55;1.30;;;;;;;-146.25;95.49;52508.09;2095904;28;38144;-78
2023/01/12 02:27:49;;;;;;;12.50;1.60;;;;;;;-146.25;95.78;52489.84;2096386;28;37732;-78
2023/01/12 02:29:31;;;;;;;10.52;1.60;;;;;;;-146.25;96.28;52465.53;2087109;28;37761;-79
2023/01/12 02:31:06;;;;;;;11.43;1.88;;;;;;;-146.25;96.09;52497.97;2086624;28;40221;-78
2023/01/12 02:32:26;;;;;;;9.95;1.85;;;;;;;-146.25;96.16;52497.97;2057971;28;41045;-78
2023/01/12 02:33:43;;;;;;;12.68;2.38;;;;;;;-146.25;96.30;52508.09;2094071;28;43331;-78
2023/01/12 02:35:08;;;;;;;11.73;2.03;;;;;;;-146.25;96.28;52526.34;2096133;28;40365;-78
2023/01/12 02:36:32;;;;;;;12.13;2.30;;;;;;;-146.25;96.15;52491.88;2096265;28;41519;-78
2023/01/12 02:38:17;;;;;;;10.77;1.88;;;;;;;-146.25;96.14;52479.72;2087228;28;39900;-78
2023/01/12 02:39:38;;;;;;;10.77;2.08;;;;;;;-146.25;96.14;52493.91;2062282;28;40841;-78
2023/01/12 02:43:01;;;;;;;14.90;2.25;;;;;;;-146.25;96.39;52500.00;2054351;28;24731;-78
2023/01/12 02:44:10;;;;;;;9.18;2.10;;;;;;;-146.25;96.30;52495.94;2054891;28;20055;-79
2023/01/12 02:45:50;;;;;;;9.82;2.42;;;;;;;-146.25;96.30;52477.69;2075858;28;42625;-78
2023/01/12 02:46:53;;;;;;;14.40;2.47;;;;;;;-146.25;96.45;52512.16;2086409;28;20993;-78
2023/01/12 02:48:21;;;;;;;10.30;2.78;;;;;;;-146.25;96.27;52469.56;2078596;28;40005;-79
2023/01/12 02:49:31;;;;;;;15.00;2.83;;;;;;;-146.25;96.05;52467.56;2091764;28;20049;-78
2023/01/12 02:50:56;;;;;;;13.63;3.13;;;;;;;-146.25;96.14;52485.81;2086748;28;41821;-78
2023/01/12 02:52:08;;;;;;;12.48;2.80;;;;;;;-146.25;96.25;52495.94;2092286;28;20152;-79
2023/01/12 02:53:26;;;;;;;12.93;2.67;;;;;;;-146.25;96.00;52522.28;2095630;28;44180;-79
2023/01/12 02:54:30;;;;;;;14.48;2.72;;;;;;;-146.25;95.91;52502.03;2087110;28;24104;-78
2023/01/12 02:55:37;;;;;;;14.00;2.53;;;;;;;-146.25;95.92;52504.03;2081896;28;20164;-78
2023/01/12 02:56:47;;;;;;;12.02;2.45;;;;;;;-146.25;96.03;52495.94;2079699;28;43279;-78
2023/01/12 02:57:51;;;;;;;12.13;2.28;;;;;;;-146.25;96.04;52500.00;2088558;28;39818;-78
2023/01/12 02:58:58;;;;;;;11.07;2.80;;;;;;;-146.25;95.42;52487.81;2094693;28;43048;-78
2023/01/12 03:00:02;;;;;;;14.52;3.10;;;;;;;-146.25;95.33;52502.03;2086988;28;38946;-78
2023/01/12 03:01:06;;;;;;;9.73;1.92;;;;;;;-146.25;94.96;52493.91;2079775;28;35512;-78
2023/01/12 03:02:16;;;;;;;14.57;2.38;;;;;;;-146.25;94.78;52473.63;2079403;28;35223;-78
2023/01/12 03:03:19;;;;;;;8.90;1.83;;;;;;;-146.25;94.30;52510.13;2080346;28;37442;-78
2023/01/12 03:04:22;;;;;;;10.13;1.80;;;;;;;-146.25;94.41;52477.69;2078453;28;42042;-78
2023/01/12 03:05:26;;;;;;;8.27;2.30;;;;;;;-146.25;93.94;52497.97;2071818;28;36114;-78
2023/01/12 03:06:44;;;;;;;10.52;1.95;;;;;;;-146.25;93.81;52489.84;2078912;28;39850;-78
2023/01/12 03:07:53;;;;;;;8.60;2.10;;;;;;;-146.25;94.08;52471.59;2073162;28;39419;-78
2023/01/12 03:08:55;;;;;;;12.68;2.03;;;;;;;-146.25;93.96;52422.94;2082365;28;35264;-78
2023/01/12 03:10:33;;;;;;;10.95;2.22;;;;;;;-146.25;93.93;52455.38;2095263;28;21263;-78
2023/01/12 03:11:39;;;;;;;10.95;2.10;;;;;;;-146.25;94.19;52506.06;2086780;28;37540;-78
2023/01/12 03:12:43;;;;;;;10.45;2.50;;;;;;;-146.25;94.24;52477.69;2083591;28;39007;-78
2023/01/12 03:13:54;;;;;;;8.07;2.17;;;;;;;-146.25;94.32;52469.56;2079775;28;40907;-78
2023/01/12 03:15:01;;;;;;;;;;;;;;;-146.25;94.26;52461.47;2080952;28;42387;-78
2023/01/12 03:16:06;;;;;;;9.15;2.33;;;;;;;-146.25;94.38;52491.88;2089253;28;39671;-78
2023/01/12 03:17:21;;;;;;;9.40;2.70;;;;;;;-146.25;94.26;52475.66;2086580;28;39543;-78
2023/01/12 03:18:37;;;;;;;6.85;2.40;;;;;;;-146.25;94.31;52512.16;2080867;28;38652;-78
2023/01/12 03:19:42;;;;;;;10.55;2.10;;;;;;;-146.25;94.24;52465.53;2088858;28;40541;-78
2023/01/12 03:21:12;;;;;;;10.00;2.38;;;;;;;-146.25;94.23;52491.88;2087307;28;20047;-78
2023/01/12 03:22:15;;;;;;;9.40;3.00;;;;;;;-146.25;94.66;52465.53;2078760;28;39309;-78
2023/01/12 03:23:35;;;;;;;12.90;3.10;;;;;;;-146.25;94.50;52489.84;2082456;28;36472;-78
2023/01/12 03:24:44;;;;;;;11.52;3.22;;;;;;;-146.25;94.72;52502.03;2081631;28;41333;-78
2023/01/12 03:25:47;;;;;;;10.57;3.50;;;;;;;-146.25;94.32;52491.88;2081945;28;37086;-78
2023/01/12 03:27:03;;;;;;;9.95;3.08;;;;;;;-146.25;94.41;52516.22;2080080;28;34491;-78
2023/01/12 03:28:07;;;;;;;10.18;3.35;;;;;;;-146.25;94.51;52500.00;2081851;28;42793;-77
2023/01/12 03:29:30;;;;;;;7.55;3.05;;;;;;;-146.25;94.40;52461.47;2081986;28;38473;-78
2023/01/12 03:30:37;;;;;;;9.68;3.55;;;;;;;-146.25;94.28;52528.38;2083837;28;41760;-78
2023/01/12 03:31:41;;;;;;;6.88;2.70;;;;;;;-146.25;94.35;52477.69;2082713;28;24129;-78
2023/01/12 03:32:43;;;;;;;10.25;3.03;;;;;;;-146.25;94.84;52477.69;2072099;28;38246;-78
2023/01/12 03:33:44;;;;;;;9.32;3.28;;;;;;;-146.25;94.75;52479.72;2079592;28;41364;-78
2023/01/12 03:34:47;;;;;;;9.13;3.13;;;;;;;-146.25;94.95;52467.56;2097775;28;20462;-78
2023/01/12 03:36:16;;;;;;;11.32;3.20;;;;;;;-146.25;95.14;52510.13;2088139;28;36105;-78
2023/01/12 03:37:49;;;;;;;10.82;2.70;;;;;;;-146.25;95.21;52487.81;2092583;28;39597;-78
2023/01/12 03:39:15;;;;;;;11.25;3.33;;;;;;;-146.25;95.36;52471.59;2088305;28;39554;-79
2023/01/12 03:40:26;;;;;;;8.13;3.03;;;;;;;-146.25;95.74;52457.41;2095440;28;28342;-78
2023/01/12 03:42:18;;;;;;;9.55;2.92;;;;;;;-146.25;96.19;52506.06;2088086;28;39448;-78
2023/01/12 03:43:52;;;;;;;7.18;3.08;;;;;;;-146.25;96.96;52487.81;2088412;28;20878;-78
2023/01/12 03:45:40;;;;;;;12.88;3.25;;;;;;;-146.25;97.01;52481.75;2091101;28;42405;-77
2023/01/12 03:46:52;;;;;;;8.10;3.20;;;;;;;-146.25;97.69;52514.19;2087996;28;33956;-78
2023/01/12 03:48:16;;;;;;;8.57;3.33;;;;;;;-146.25;97.53;52477.69;2084676;28;40750;-78
2023/01/12 03:49:40;;;;;;;11.18;3.80;;;;;;;-146.25;98.09;52467.56;2093718;28;21278;-78
2023/01/12 03:50:51;;;;;;;8.27;3.83;;;;;;;-146.25;98.41;52516.22;2097168;28;40627;-78
2023/01/12 03:51:59;;;;;;;9.48;3.67;;;;;;;-146.25;98.47;52485.81;2088692;28;20045;-77
2023/01/12 03:53:05;;;;;;;6.57;3.58;;;;;;;-146.25;98.70;52471.59;2081874;28;38874;-78
2023/01/12 03:54:11;;;;;;;7.85;3.85;;;;;;;-146.25;98.52;52449.31;2081407;28;37604;-78
2023/01/12 03:55:18;;;;;;;9.13;3.72;;;;;;;-146.25;98.83;52471.59;2081435;28;24703;-78
2023/01/12 03:56:23;;;;;;;13.30;3.92;;;;;;;-146.25;99.09;52504.03;2080940;28;39175;-78
2023/01/12 03:57:25;;;;;;;10.27;3.70;;;;;;;-146.25;98.86;52504.03;2080805;28;40958;-78
2023/01/12 03:58:28;;;;;;;12.10;4.22;;;;;;;-146.25;99.33;52453.34;2080559;28;20037;-78
2023/01/12 03:59:31;;;;;;;7.32;3.88;;;;;;;-146.25;99.52;52473.63;2088312;28;36418;-78
2023/01/12 04:00:33;;;;;;;9.10;3.88;;;;;;;-146.25;99.17;52467.56;2096552;28;39166;-78
2023/01/12 04:01:37;;;;;;;9.52;3.60;;;;;;;-146.25;99.15;52532.44;2096777;28;41140;-77
2023/01/12 04:02:42;;;;;;;11.18;4.30;;;;;;;-146.25;99.29;52500.00;2096852;28;31474;-78
2023/01/12 04:03:44;;;;;;;9.60;4.32;;;;;;;-146.25;99.30;52473.63;2096652;28;39947;-78
2023/01/12 04:04:49;;;;;;;11.50;4.43;;;;;;;-146.25;99.58;52497.97;2087900;28;38067;-78
2023/01/12 04:05:51;;;;;;;13.05;4.40;;;;;;;-146.25;99.94;52483.78;2088729;28;34768;-78
2023/01/12 04:06:52;;;;;;;11.30;4.72;;;;;;;-146.25;99.59;52473.63;2097241;28;41889;-78
2023/01/12 04:07:54;;;;;;;9.40;4.53;;;;;;;-146.25;99.97;52504.03;2087949;28;38980;-78
2023/01/12 04:08:56;;;;;;;11.90;4.28;;;;;;;-146.25;99.95;52477.69;2079717;28;37738;-78
2023/01/12 04:09:57;;;;;;;8.57;3.85;;;;;;;-146.25;99.85;52447.28;2088086;28;38499;-78
2023/01/12 04:12:08;;;;;;;8.70;4.15;;;;;;;-146.25;99.85;52485.81;2096843;28;25163;-78
2023/01/12 04:12:26;;;;;;;10.52;4.40;;;;;;;-146.25;100.00;52510.13;2097022;28;38884;-78
2023/01/12 04:13:29;;;;;;;8.38;4.15;;;;;;;-146.25;100.00;52497.97;2096852;28;38706;-78
2023/01/12 04:14:34;;;;;;;10.77;4.18;;;;;;;-146.25;100.00;52465.53;2097583;28;20038;-78
2023/01/12 04:15:37;;;;;;;10.25;3.97;;;;;;;-146.25;100.00;52485.81;2096732;28;40772;-79
2023/01/12 04:16:38;;;;;;;12.43;4.45;;;;;;;-146.25;100.00;52463.50;2087663;28;37395;-78
2023/01/12 04:17:42;;;;;;;10.07;4.13;;;;;;;-146.25;100.00;52518.25;2088499;28;37344;-78
2023/01/12 04:18:44;;;;;;;10.10;4.45;;;;;;;-146.25;100.00;52518.25;2088206;28;20033;-78
2023/01/12 04:19:47;;;;;;;11.02;4.53;;;;;;;-146.25;100.00;52481.75;2087950;28;41170;-78
2023/01/12 04:20:49;;;;;;;8.07;4.18;;;;;;;-146.25;100.00;52483.78;2097413;28;34893;-77
2023/01/12 04:23:11;;;;;;;;;;;;;;;-146.25;100.00;52487.81;2088376;28;39490;-77
2023/01/12 04:24:12;;;;;;;11.20;4.22;;;;;;;-146.25;100.00;52485.81;2091095;28;25985;-78
2023/01/12 04:25:18;;;;;;;10.18;3.83;;;;;;;-146.25;100.00;52477.69;2087132;28;42741;-77
2023/01/12 04:26:21;;;;;;;12.55;3.72;;;;;;;-146.25;100.00;52477.69;2081296;28;20927;-78
2023/01/12 04:27:25;;;;;;;14.88;4.30;;;;;;;-146.25;100.00;52526.34;2080346;28;38316;-77
2023/01/12 04:28:27;;;;;;;10.40;4.28;;;;;;;-146.25;100.00;52487.81;2088808;28;23223;-77
2023/01/12 04:29:29;;;;;;;8.60;4.03;;;;;;;-146.25;100.00;52495.94;2087975;28;36131;-77
2023/01/12 04:30:32;;;;;;;7.32;4.15;;;;;;;-146.25;100.00;52514.19;2087960;28;39348;-78
2023/01/12 04:31:34;;;;;;;9.43;3.70;;;;;;;-146.25;100.00;52510.13;2087408;28;38712;-77
2023/01/12 04:32:36;;;;;;;10.98;4.63;;;;;;;-146.25;100.00;52459.44;2088267;28;38275;-78
2023/01/12 04:33:38;;;;;;;7.97;3.53;;;;;;;-146.25;100.00;52479.72;2097025;28;24751;-77
2023/01/12 04:34:40;;;;;;;12.85;4.00;;;;;;;-146.25;100.00;52487.81;2096611;28;40702;-77
2023/01/12 04:35:45;;;;;;;8.38;3.50;;;;;;;-146.25;100.00;52491.88;2097426;28;20037;-77
2023/01/12 04:36:47;;;;;;;10.75;3.90;;;;;;;-146.25;100.00;52502.03;2096900;28;39528;-77
2023/01/12 04:37:50;;;;;;;13.07;3.65;;;;;;;-146.25;100.00;52522.28;2096451;28;36769;-77
2023/01/12 04:38:54;;;;;;;10.50;3.80;;;;;;;-146.25;100.00;52497.97;2086780;28;41757;-77
2023/01/12 04:39:59;;;;;;;6.38;2.88;;;;;;;-146.25;100.00;52477.69;2088125;28;37999;-77
2023/01/12 04:41:00;;;;;;;9.90;3.08;;;;;;;-146.25;100.00;52481.75;2097010;28;23149;-77
2023/01/12 04:42:02;;;;;;;8.13;3.15;;;;;;;-146.25;100.00;52487.81;2097272;28;20037;-78
2023/01/12 04:43:08;;;;;;;8.23;3.00;;;;;;;-146.25;100.00;52500.00;2096864;28;40943;-78
2023/01/12 04:44:10;;;;;;;8.20;2.83;;;;;;;-146.25;100.00;52485.81;2096921;28;39817;-77
2023/01/12 04:45:12;;;;;;;7.03;3.25;;;;;;;-146.25;100.00;52453.34;2096588;28;35910;-78
2023/01/12 04:46:14;;;;;;;5.72;2.90;;;;;;;-146.25;100.00;52491.88;2096601;28;39859;-78
2023/01/12 04:47:15;;;;;;;7.70;2.80;;;;;;;-146.25;100.00;52506.06;2096698;28;38760;-78
2023/01/12 04:48:19;;;;;;;8.32;2.85;;;;;;;-146.25;100.00;52479.72;2096595;28;37761;-78
2023/01/12 04:49:21;;;;;;;6.70;2.25;;;;;;;-146.25;100.00;52489.84;2088286;28;20045;-78
2023/01/12 04:50:23;;;;;;;8.32;2.90;;;;;;;-146.25;100.00;52508.09;2087725;28;37768;-77
2023/01/12 04:51:25;;;;;;;6.32;2.38;;;;;;;-146.25;100.00;52493.91;2096473;28;36514;-78
2023/01/12 04:52:26;;;;;;;7.47;2.35;;;;;;;-146.25;100.00;52526.34;2096588;28;38459;-78
2023/01/12 04:53:28;;;;;;;7.45;2.53;;;;;;;-146.25;100.00;52504.03;2096862;28;40032;-78
2023/01/12 04:54:32;;;;;;;6.57;2.20;;;;;;;-146.25;100.00;52431.06;2087251;28;38308;-77
2023/01/12 04:55:40;;;;;;;6.18;1.83;;;;;;;-146.25;100.00;52477.69;2087578;28;39792;-78
2023/01/12 04:56:41;;;;;;;7.65;1.92;;;;;;;-146.25;100.00;52497.97;2088090;28;20042;-77
2023/01/12 04:57:43;;;;;;;7.75;2.33;;;;;;;-146.25;100.00;52445.25;2087516;28;37067;-78
2023/01/12 04:58:45;;;;;;;10.07;2.13;;;;;;;-146.25;100.00;52485.81;2078327;28;39672;-78
2023/01/12 04:59:47;;;;;;;8.25;2.20;;;;;;;-146.25;100.00;52485.81;2079810;28;38035;-77
2023/01/12 05:00:48;;;;;;;7.90;2.25;;;;;;;-146.25;100.00;52477.69;2096823;28;38159;-78
2023/01/12 05:01:53;;;;;;;5.53;2.10;;;;;;;-146.25;100.00;52526.34;2096950;28;20305;-78
2023/01/12 05:02:58;;;;;;;6.05;2.10;;;;;;;-146.25;100.00;52477.69;2096417;28;39963;-77
2023/01/12 05:03:59;;;;;;;5.35;2.00;;;;;;;-146.25;100.00;52530.41;2096109;28;39537;-77
2023/01/12 05:05:04;;;;;;;3.65;1.83;;;;;;;-146.25;100.00;52506.06;2097883;28;20813;-78
2023/01/12 05:06:06;;;;;;;5.65;2.10;;;;;;;-146.25;100.00;52526.34;2096604;28;37903;-78
2023/01/12 05:07:08;;;;;;;5.35;1.80;;;;;;;-146.25;100.00;52506.06;2087693;28;35721;-77
2023/01/12 05:10:57;;;;;;;6.60;2.13;;;;;;;-146.25;100.00;52508.09;2096845;28;20036;-77
2023/01/12 05:12:00;;;;;;;5.45;1.98;;;;;;;-146.25;100.00;52504.03;2095910;28;44127;-77
2023/01/12 05:13:01;;;;;;;5.90;2.17;;;;;;;-146.25;100.00;52481.75;2096316;28;42188;-77
2023/01/12 05:14:04;;;;;;;7.68;1.92;;;;;;;-146.25;100.00;52465.53;2096268;28;38456;-77
2023/01/12 05:15:08;;;;;;;4.55;2.03;;;;;;;-146.25;100.00;52510.13;2096493;28;40401;-78
2023/01/12 05:16:16;;;;;;;8.38;2.50;;;;;;;-146.25;100.00;52506.06;2096522;28;37388;-78
2023/01/12 05:17:18;;;;;;;6.47;2.10;;;;;;;-146.25;100.00;52504.03;2096182;28;39052;-78
2023/01/12 05:18:22;;;;;;;8.80;2.10;;;;;;;-146.25;100.00;52489.84;2097244;28;20033;-78
2023/01/12 05:19:24;;;;;;;9.40;2.10;;;;;;;-146.25;100.00;52477.69;2095794;28;41427;-78
2023/01/12 05:20:26;;;;;;;5.15;1.90;;;;;;;-146.25;100.00;52489.84;2087098;28;40103;-78
2023/01/12 05:21:29;;;;;;;5.90;1.90;;;;;;;-146.25;100.00;52502.03;2087425;28;39192;-78
2023/01/12 05:22:30;;;;;;;6.72;1.92;;;;;;;-146.25;100.00;52497.97;2087109;28;42196;-78
2023/01/12 05:23:32;;;;;;;8.85;2.00;;;;;;;-146.25;100.00;52493.91;2088353;28;24379;-78